LEMD/MAD METAR and TAF weather

Enter ICAO airport designator
Station Type Date Time Source
LEMD METAR 2019/04/25 11:30 UTC NOAA

LEMD 251130Z 21022KT 190V250 9999 BKN040 13/03 Q1011 NOSIG


Station Type Date Time Source
LEMD Decoded METAR 2019/04/25 11:30 UTC NOAA

Madrid / Barajas, Spain (LEMD) 40-27N 003-33W 582M
Apr 25, 2019 - 08:00 AM EDT / 2019.04.25 1200 UTC
Wind: from the SW (220 degrees) at 25 MPH (22 KT) gusting to 40 MPH (35 KT):0
Visibility: greater than 7 mile(s):0
Sky conditions: mostly cloudy
Temperature: 57 F (14 C)
Dew Point: 39 F (4 C)
Relative Humidity: 50%
Pressure (altimeter): 29.85 in. Hg (1011 hPa)
ob: LEMD 251200Z 22022G35KT 9999 BKN040 14/04 Q1011 NOSIG
cycle: 12

Station Type Date Time Source
LEMD TAF 2019/04/25 12:28 UTC NOAA

TAF LEMD 251100Z 2512/2618 24014KT 9999 SCT025 BKN040 TX14/2515Z TN04/2606Z
TEMPO 2512/2520 24015G25KT PROB30
TEMPO 2512/2518 24020G32KT PROB30
TEMPO 2512/2517 3000 SHRA SCT025TCU PROB30
TEMPO 2605/2611 4000 BR BKN007

Example: see airport list